KSUU

Travis AFB Airport

Fairfield, California, USA
METAR KSUU 190558Z 23009KT 10SM OVC060 10/10 A3003 RMK AO2A SLP176 60002 T00990099 10134 20099 52014 $
Observed Flight Rules
Jan-19 @ 05:58 UTC (an hour ago) Visual Flight Rules
Wind Visibility Clouds
230° at 9 knots 10 miles
  • Overcast at 6,000' AGL
Temperatures Readings
Current 10°C / 50°F
Dewpoint 10°C / 50°F
Humidity 100%
Altimeter 30.03" Hg
Pressure 1017.6 hPa
Elevation 19
METAR KSUU 190558Z 23009KT 10SM OVC060 10/10 A3003 RMK AO2A SLP176 60002 T00990099 10134 20099 52014 $
Observed Flight Rules
Jan-19 @ 05:58 UTC
(an hour ago)
VFR
Wind Visibility
230° at 9 knots 10 miles
Clouds
  • Overcast at 6,000' AGL
Temperature Dewpoint
10°C / 50°F 10°C / 50°F
Humidity Altimeter Pressure
100% 30.03" Hg 1017.6 hPa